sensor_id;sensor_type;location;lat;lon;timestamp;temperature;humidity
76291;DHT22;65100;46.884;17.410;2023-03-11T00:01:40;9.25;87.91
76291;DHT22;65100;46.884;17.410;2023-03-11T00:04:06;9.16;87.98
76291;DHT22;65100;46.884;17.410;2023-03-11T00:06:35;9.15;87.80
76291;DHT22;65100;46.884;17.410;2023-03-11T00:09:00;9.07;88.42
76291;DHT22;65100;46.884;17.410;2023-03-11T00:11:26;9.16;88.09
76291;DHT22;65100;46.884;17.410;2023-03-11T00:13:51;9.11;87.82
76291;DHT22;65100;46.884;17.410;2023-03-11T00:16:17;8.94;88.93
76291;DHT22;65100;46.884;17.410;2023-03-11T00:18:42;8.75;89.92
76291;DHT22;65100;46.884;17.410;2023-03-11T00:21:15;8.72;90.46
76291;DHT22;65100;46.884;17.410;2023-03-11T00:23:42;8.85;90.02
76291;DHT22;65100;46.884;17.410;2023-03-11T00:26:07;8.72;89.85
76291;DHT22;65100;46.884;17.410;2023-03-11T00:28:33;8.57;90.42
76291;DHT22;65100;46.884;17.410;2023-03-11T00:30:58;8.47;91.38
76291;DHT22;65100;46.884;17.410;2023-03-11T00:33:23;8.92;89.90
76291;DHT22;65100;46.884;17.410;2023-03-11T00:35:49;8.87;89.30
76291;DHT22;65100;46.884;17.410;2023-03-11T00:38:16;8.65;89.67
76291;DHT22;65100;46.884;17.410;2023-03-11T00:40:43;8.70;89.44
76291;DHT22;65100;46.884;17.410;2023-03-11T00:43:09;8.88;89.20
76291;DHT22;65100;46.884;17.410;2023-03-11T00:45:34;8.67;89.36
76291;DHT22;65100;46.884;17.410;2023-03-11T00:48:00;8.36;90.50
76291;DHT22;65100;46.884;17.410;2023-03-11T00:50:29;8.26;91.58
76291;DHT22;65100;46.884;17.410;2023-03-11T00:52:55;8.63;90.96
76291;DHT22;65100;46.884;17.410;2023-03-11T00:55:24;8.97;89.56
76291;DHT22;65100;46.884;17.410;2023-03-11T00:57:58;9.15;89.18
76291;DHT22;65100;46.884;17.410;2023-03-11T01:00:25;8.84;89.19
76291;DHT22;65100;46.884;17.410;2023-03-11T01:02:52;8.91;89.41
76291;DHT22;65100;46.884;17.410;2023-03-11T01:05:20;8.77;89.64
76291;DHT22;65100;46.884;17.410;2023-03-11T01:07:46;8.77;89.43
76291;DHT22;65100;46.884;17.410;2023-03-11T01:10:12;8.82;89.98
76291;DHT22;65100;46.884;17.410;2023-03-11T01:12:37;9.10;89.70
76291;DHT22;65100;46.884;17.410;2023-03-11T01:15:04;9.40;88.36
76291;DHT22;65100;46.884;17.410;2023-03-11T01:17:30;9.43;86.65
76291;DHT22;65100;46.884;17.410;2023-03-11T01:19:55;9.55;85.80
76291;DHT22;65100;46.884;17.410;2023-03-11T01:22:21;9.62;84.96
76291;DHT22;65100;46.884;17.410;2023-03-11T01:24:46;9.65;84.51
76291;DHT22;65100;46.884;17.410;2023-03-11T01:27:12;9.73;84.79
76291;DHT22;65100;46.884;17.410;2023-03-11T01:29:37;10.00;80.31
76291;DHT22;65100;46.884;17.410;2023-03-11T01:32:03;10.07;81.43
76291;DHT22;65100;46.884;17.410;2023-03-11T01:34:28;10.03;81.90
76291;DHT22;65100;46.884;17.410;2023-03-11T01:36:54;9.83;82.36
76291;DHT22;65100;46.884;17.410;2023-03-11T01:39:19;9.76;84.09
76291;DHT22;65100;46.884;17.410;2023-03-11T01:41:45;9.65;85.02
76291;DHT22;65100;46.884;17.410;2023-03-11T01:44:11;9.58;84.81
76291;DHT22;65100;46.884;17.410;2023-03-11T01:49:18;10.03;81.86
76291;DHT22;65100;46.884;17.410;2023-03-11T01:51:47;9.89;82.55
76291;DHT22;65100;46.884;17.410;2023-03-11T01:54:22;10.10;80.97
76291;DHT22;65100;46.884;17.410;2023-03-11T01:56:49;10.17;79.72
76291;DHT22;65100;46.884;17.410;2023-03-11T01:59:19;10.12;80.15
76291;DHT22;65100;46.884;17.410;2023-03-11T02:01:52;10.06;80.19
76291;DHT22;65100;46.884;17.410;2023-03-11T02:04:20;9.87;81.12
76291;DHT22;65100;46.884;17.410;2023-03-11T02:06:46;9.82;81.65
76291;DHT22;65100;46.884;17.410;2023-03-11T02:09:11;9.70;82.57
76291;DHT22;65100;46.884;17.410;2023-03-11T02:11:37;9.75;83.01
76291;DHT22;65100;46.884;17.410;2023-03-11T02:14:05;9.58;82.74
76291;DHT22;65100;46.884;17.410;2023-03-11T02:16:32;9.52;84.08
76291;DHT22;65100;46.884;17.410;2023-03-11T02:18:59;9.08;84.73
76291;DHT22;65100;46.884;17.410;2023-03-11T02:21:31;9.52;85.11
76291;DHT22;65100;46.884;17.410;2023-03-11T02:27:16;9.38;86.65
76291;DHT22;65100;46.884;17.410;2023-03-11T02:29:43;9.29;86.83
76291;DHT22;65100;46.884;17.410;2023-03-11T02:32:11;9.36;85.87
76291;DHT22;65100;46.884;17.410;2023-03-11T02:34:37;9.39;86.57
76291;DHT22;65100;46.884;17.410;2023-03-11T02:37:06;9.48;85.91
76291;DHT22;65100;46.884;17.410;2023-03-11T02:39:36;9.43;86.07
76291;DHT22;65100;46.884;17.410;2023-03-11T02:42:20;8.87;87.81
76291;DHT22;65100;46.884;17.410;2023-03-11T02:44:54;8.58;89.23
76291;DHT22;65100;46.884;17.410;2023-03-11T02:47:21;8.92;88.58
76291;DHT22;65100;46.884;17.410;2023-03-11T02:49:46;9.29;87.06
76291;DHT22;65100;46.884;17.410;2023-03-11T02:52:12;9.55;81.86
76291;DHT22;65100;46.884;17.410;2023-03-11T02:54:37;9.58;82.79
76291;DHT22;65100;46.884;17.410;2023-03-11T02:57:03;9.45;81.14
76291;DHT22;65100;46.884;17.410;2023-03-11T02:59:28;9.26;81.89
76291;DHT22;65100;46.884;17.410;2023-03-11T03:01:54;9.18;79.75
76291;DHT22;65100;46.884;17.410;2023-03-11T03:04:20;9.22;80.70
76291;DHT22;65100;46.884;17.410;2023-03-11T03:07:06;9.19;79.49
76291;DHT22;65100;46.884;17.410;2023-03-11T03:09:31;9.24;80.09
76291;DHT22;65100;46.884;17.410;2023-03-11T03:11:57;9.14;81.04
76291;DHT22;65100;46.884;17.410;2023-03-11T03:14:23;9.14;80.52
76291;DHT22;65100;46.884;17.410;2023-03-11T03:17:08;9.14;81.09
76291;DHT22;65100;46.884;17.410;2023-03-11T03:19:34;9.01;81.07
76291;DHT22;65100;46.884;17.410;2023-03-11T03:21:59;9.12;80.59
76291;DHT22;65100;46.884;17.410;2023-03-11T03:24:25;9.11;80.29
76291;DHT22;65100;46.884;17.410;2023-03-11T03:26:50;9.07;81.73
76291;DHT22;65100;46.884;17.410;2023-03-11T03:29:16;9.07;82.27
76291;DHT22;65100;46.884;17.410;2023-03-11T03:31:41;9.14;81.06
76291;DHT22;65100;46.884;17.410;2023-03-11T03:34:07;9.07;79.65
76291;DHT22;65100;46.884;17.410;2023-03-11T03:36:33;9.08;77.81
76291;DHT22;65100;46.884;17.410;2023-03-11T03:38:59;9.02;77.45
76291;DHT22;65100;46.884;17.410;2023-03-11T03:41:25;8.91;79.86
76291;DHT22;65100;46.884;17.410;2023-03-11T03:43:51;8.87;77.68
76291;DHT22;65100;46.884;17.410;2023-03-11T03:46:17;8.80;77.33
76291;DHT22;65100;46.884;17.410;2023-03-11T03:48:43;8.71;77.79
76291;DHT22;65100;46.884;17.410;2023-03-11T03:51:10;8.63;78.09
76291;DHT22;65100;46.884;17.410;2023-03-11T03:53:36;8.57;77.93
76291;DHT22;65100;46.884;17.410;2023-03-11T03:56:07;8.44;79.90
76291;DHT22;65100;46.884;17.410;2023-03-11T03:58:33;8.41;79.58
76291;DHT22;65100;46.884;17.410;2023-03-11T04:00:59;8.32;79.19
76291;DHT22;65100;46.884;17.410;2023-03-11T04:03:26;8.25;80.35
76291;DHT22;65100;46.884;17.410;2023-03-11T04:05:52;8.30;81.25
76291;DHT22;65100;46.884;17.410;2023-03-11T04:08:17;8.19;82.24
76291;DHT22;65100;46.884;17.410;2023-03-11T04:10:43;7.94;83.38
76291;DHT22;65100;46.884;17.410;2023-03-11T04:13:09;7.58;84.48
76291;DHT22;65100;46.884;17.410;2023-03-11T04:15:37;7.49;85.46
76291;DHT22;65100;46.884;17.410;2023-03-11T04:18:03;7.83;83.72
76291;DHT22;65100;46.884;17.410;2023-03-11T04:20:28;8.00;82.89
76291;DHT22;65100;46.884;17.410;2023-03-11T04:22:54;8.12;83.12
76291;DHT22;65100;46.884;17.410;2023-03-11T04:25:19;8.02;84.17
76291;DHT22;65100;46.884;17.410;2023-03-11T04:27:44;7.93;83.94
76291;DHT22;65100;46.884;17.410;2023-03-11T04:30:14;7.75;84.42
76291;DHT22;65100;46.884;17.410;2023-03-11T04:32:39;7.87;84.91
76291;DHT22;65100;46.884;17.410;2023-03-11T04:35:05;7.83;85.24
76291;DHT22;65100;46.884;17.410;2023-03-11T04:37:30;8.00;84.62
76291;DHT22;65100;46.884;17.410;2023-03-11T04:39:57;7.96;85.78
76291;DHT22;65100;46.884;17.410;2023-03-11T04:42:22;7.75;86.49
76291;DHT22;65100;46.884;17.410;2023-03-11T04:44:48;7.86;86.39
76291;DHT22;65100;46.884;17.410;2023-03-11T04:47:13;7.83;87.19
76291;DHT22;65100;46.884;17.410;2023-03-11T04:49:39;8.02;82.51
76291;DHT22;65100;46.884;17.410;2023-03-11T04:52:04;8.07;83.89
76291;DHT22;65100;46.884;17.410;2023-03-11T04:54:30;7.90;81.82
76291;DHT22;65100;46.884;17.410;2023-03-11T04:56:55;8.14;79.82
76291;DHT22;65100;46.884;17.410;2023-03-11T04:59:21;8.22;77.18
76291;DHT22;65100;46.884;17.410;2023-03-11T05:01:46;8.06;76.27
76291;DHT22;65100;46.884;17.410;2023-03-11T05:04:12;8.00;74.09
76291;DHT22;65100;46.884;17.410;2023-03-11T05:06:37;8.07;74.60
76291;DHT22;65100;46.884;17.410;2023-03-11T05:09:03;8.02;74.18
76291;DHT22;65100;46.884;17.410;2023-03-11T05:11:29;7.99;74.68
76291;DHT22;65100;46.884;17.410;2023-03-11T05:13:55;7.92;73.68
76291;DHT22;65100;46.884;17.410;2023-03-11T05:16:20;7.87;73.59
76291;DHT22;65100;46.884;17.410;2023-03-11T05:18:46;7.79;72.48
76291;DHT22;65100;46.884;17.410;2023-03-11T05:21:11;7.71;70.99
76291;DHT22;65100;46.884;17.410;2023-03-11T05:23:37;7.79;72.83
76291;DHT22;65100;46.884;17.410;2023-03-11T05:26:03;7.82;74.06
76291;DHT22;65100;46.884;17.410;2023-03-11T05:28:28;7.81;72.48
76291;DHT22;65100;46.884;17.410;2023-03-11T05:30:53;7.76;72.11
76291;DHT22;65100;46.884;17.410;2023-03-11T05:33:19;7.73;72.16
76291;DHT22;65100;46.884;17.410;2023-03-11T05:35:44;7.78;71.34
76291;DHT22;65100;46.884;17.410;2023-03-11T05:38:10;7.76;70.05
76291;DHT22;65100;46.884;17.410;2023-03-11T05:40:35;7.76;69.45
76291;DHT22;65100;46.884;17.410;2023-03-11T05:43:01;7.72;68.57
76291;DHT22;65100;46.884;17.410;2023-03-11T05:45:26;7.76;68.89
76291;DHT22;65100;46.884;17.410;2023-03-11T05:47:52;7.78;68.65
76291;DHT22;65100;46.884;17.410;2023-03-11T05:50:17;7.68;68.29
76291;DHT22;65100;46.884;17.410;2023-03-11T05:52:43;7.73;66.13
76291;DHT22;65100;46.884;17.410;2023-03-11T05:55:09;7.82;67.91
76291;DHT22;65100;46.884;17.410;2023-03-11T05:57:37;7.78;66.76
76291;DHT22;65100;46.884;17.410;2023-03-11T06:00:04;7.75;65.34
76291;DHT22;65100;46.884;17.410;2023-03-11T06:02:31;7.78;65.35
76291;DHT22;65100;46.884;17.410;2023-03-11T06:04:57;7.75;66.81
76291;DHT22;65100;46.884;17.410;2023-03-11T06:07:22;7.78;64.99
76291;DHT22;65100;46.884;17.410;2023-03-11T06:09:49;7.86;65.75
76291;DHT22;65100;46.884;17.410;2023-03-11T06:12:14;7.87;66.16
76291;DHT22;65100;46.884;17.410;2023-03-11T06:14:40;7.96;64.49
76291;DHT22;65100;46.884;17.410;2023-03-11T06:17:05;8.06;63.97
76291;DHT22;65100;46.884;17.410;2023-03-11T06:19:31;8.33;64.44
76291;DHT22;65100;46.884;17.410;2023-03-11T06:21:56;8.33;63.27
76291;DHT22;65100;46.884;17.410;2023-03-11T06:24:22;9.19;61.89
76291;DHT22;65100;46.884;17.410;2023-03-11T06:26:50;10.50;56.30
76291;DHT22;65100;46.884;17.410;2023-03-11T06:29:16;9.79;57.85
76291;DHT22;65100;46.884;17.410;2023-03-11T06:31:41;9.25;56.33
76291;DHT22;65100;46.884;17.410;2023-03-11T06:34:08;9.02;56.69
76291;DHT22;65100;46.884;17.410;2023-03-11T06:36:34;8.97;56.64
76291;DHT22;65100;46.884;17.410;2023-03-11T06:39:00;9.45;53.29
76291;DHT22;65100;46.884;17.410;2023-03-11T06:41:25;9.50;54.31
76291;DHT22;65100;46.884;17.410;2023-03-11T06:43:51;9.58;53.12
76291;DHT22;65100;46.884;17.410;2023-03-11T06:46:21;9.34;51.62
76291;DHT22;65100;46.884;17.410;2023-03-11T06:48:47;9.11;48.60
76291;DHT22;65100;46.884;17.410;2023-03-11T06:51:17;9.25;49.06
76291;DHT22;65100;46.884;17.410;2023-03-11T06:53:42;9.53;48.34
76291;DHT22;65100;46.884;17.410;2023-03-11T06:56:10;9.89;49.30
76291;DHT22;65100;46.884;17.410;2023-03-11T06:58:38;10.10;49.62
76291;DHT22;65100;46.884;17.410;2023-03-11T07:01:06;10.36;46.52
76291;DHT22;65100;46.884;17.410;2023-03-11T07:03:32;10.63;45.61
76291;DHT22;65100;46.884;17.410;2023-03-11T07:05:58;10.65;44.93
76291;DHT22;65100;46.884;17.410;2023-03-11T07:08:24;10.37;42.73
76291;DHT22;65100;46.884;17.410;2023-03-11T07:11:23;9.99;44.68
76291;DHT22;65100;46.884;17.410;2023-03-11T07:13:49;9.83;44.89
76291;DHT22;65100;46.884;17.410;2023-03-11T07:16:17;9.59;44.27
76291;DHT22;65100;46.884;17.410;2023-03-11T07:18:45;9.62;43.20
76291;DHT22;65100;46.884;17.410;2023-03-11T07:21:13;9.55;43.27
76291;DHT22;65100;46.884;17.410;2023-03-11T07:23:39;9.59;43.63
76291;DHT22;65100;46.884;17.410;2023-03-11T07:26:14;9.12;43.45
76291;DHT22;65100;46.884;17.410;2023-03-11T07:28:40;8.78;44.71
76291;DHT22;65100;46.884;17.410;2023-03-11T07:31:07;8.51;45.22
76291;DHT22;65100;46.884;17.410;2023-03-11T07:33:33;8.40;43.85
76291;DHT22;65100;46.884;17.410;2023-03-11T07:35:58;8.32;43.50
76291;DHT22;65100;46.884;17.410;2023-03-11T07:38:24;8.38;48.44
76291;DHT22;65100;46.884;17.410;2023-03-11T07:40:57;8.48;47.47
76291;DHT22;65100;46.884;17.410;2023-03-11T07:43:23;8.81;42.00
76291;DHT22;65100;46.884;17.410;2023-03-11T07:45:48;9.00;44.39
76291;DHT22;65100;46.884;17.410;2023-03-11T07:48:14;8.80;41.21
76291;DHT22;65100;46.884;17.410;2023-03-11T07:50:40;8.74;41.18
76291;DHT22;65100;46.884;17.410;2023-03-11T07:53:05;8.64;42.08
76291;DHT22;65100;46.884;17.410;2023-03-11T07:55:30;8.70;47.02
76291;DHT22;65100;46.884;17.410;2023-03-11T07:57:56;8.58;46.08
76291;DHT22;65100;46.884;17.410;2023-03-11T08:00:21;8.48;44.66
76291;DHT22;65100;46.884;17.410;2023-03-11T08:02:47;8.53;43.16
76291;DHT22;65100;46.884;17.410;2023-03-11T08:05:12;8.54;41.99
76291;DHT22;65100;46.884;17.410;2023-03-11T08:07:38;8.50;41.73
76291;DHT22;65100;46.884;17.410;2023-03-11T08:10:03;8.56;44.11
76291;DHT22;65100;46.884;17.410;2023-03-11T08:12:29;8.44;42.24
76291;DHT22;65100;46.884;17.410;2023-03-11T08:14:55;8.38;41.14
76291;DHT22;65100;46.884;17.410;2023-03-11T08:17:20;8.82;41.63
76291;DHT22;65100;46.884;17.410;2023-03-11T08:19:48;8.94;41.48
76291;DHT22;65100;46.884;17.410;2023-03-11T08:22:14;8.95;40.10
76291;DHT22;65100;46.884;17.410;2023-03-11T08:24:39;8.98;42.45
76291;DHT22;65100;46.884;17.410;2023-03-11T08:27:05;8.97;39.17
76291;DHT22;65100;46.884;17.410;2023-03-11T08:29:30;9.43;41.65
76291;DHT22;65100;46.884;17.410;2023-03-11T08:31:56;9.68;39.89
76291;DHT22;65100;46.884;17.410;2023-03-11T08:34:22;9.60;38.54
76291;DHT22;65100;46.884;17.410;2023-03-11T08:36:47;9.62;41.87
76291;DHT22;65100;46.884;17.410;2023-03-11T08:39:13;9.52;40.68
76291;DHT22;65100;46.884;17.410;2023-03-11T08:41:38;9.35;40.11
76291;DHT22;65100;46.884;17.410;2023-03-11T08:44:04;9.31;39.09
76291;DHT22;65100;46.884;17.410;2023-03-11T08:46:35;9.38;38.35
76291;DHT22;65100;46.884;17.410;2023-03-11T08:49:02;9.36;39.39
76291;DHT22;65100;46.884;17.410;2023-03-11T08:51:30;9.39;38.71
76291;DHT22;65100;46.884;17.410;2023-03-11T08:53:56;9.52;42.30
76291;DHT22;65100;46.884;17.410;2023-03-11T08:56:21;9.58;44.14
76291;DHT22;65100;46.884;17.410;2023-03-11T08:58:47;9.59;39.73
76291;DHT22;65100;46.884;17.410;2023-03-11T09:01:13;9.69;40.76
76291;DHT22;65100;46.884;17.410;2023-03-11T09:03:39;9.79;40.06
76291;DHT22;65100;46.884;17.410;2023-03-11T09:06:07;9.85;39.65
76291;DHT22;65100;46.884;17.410;2023-03-11T09:08:33;9.79;41.81
76291;DHT22;65100;46.884;17.410;2023-03-11T09:10:59;9.78;39.44
76291;DHT22;65100;46.884;17.410;2023-03-11T09:13:24;9.83;42.28
76291;DHT22;65100;46.884;17.410;2023-03-11T09:15:50;9.89;39.27
76291;DHT22;65100;46.884;17.410;2023-03-11T09:18:16;10.38;41.14
76291;DHT22;65100;46.884;17.410;2023-03-11T09:20:43;10.88;39.56
76291;DHT22;65100;46.884;17.410;2023-03-11T09:23:10;11.76;35.71
76291;DHT22;65100;46.884;17.410;2023-03-11T09:25:36;12.37;35.34
76291;DHT22;65100;46.884;17.410;2023-03-11T09:28:01;12.83;33.99
76291;DHT22;65100;46.884;17.410;2023-03-11T09:30:27;13.44;32.28
76291;DHT22;65100;46.884;17.410;2023-03-11T09:32:52;13.46;34.24
76291;DHT22;65100;46.884;17.410;2023-03-11T09:35:18;13.65;30.58
76291;DHT22;65100;46.884;17.410;2023-03-11T09:37:43;13.04;34.31
76291;DHT22;65100;46.884;17.410;2023-03-11T09:40:15;11.96;36.39
76291;DHT22;65100;46.884;17.410;2023-03-11T09:43:07;11.75;34.84
76291;DHT22;65100;46.884;17.410;2023-03-11T09:45:39;11.36;32.77
76291;DHT22;65100;46.884;17.410;2023-03-11T09:48:36;11.05;35.77
76291;DHT22;65100;46.884;17.410;2023-03-11T09:51:11;10.78;35.31
76291;DHT22;65100;46.884;17.410;2023-03-11T09:53:42;10.75;36.23
76291;DHT22;65100;46.884;17.410;2023-03-11T09:56:26;10.58;35.93
76291;DHT22;65100;46.884;17.410;2023-03-11T09:58:58;10.68;36.54
76291;DHT22;65100;46.884;17.410;2023-03-11T10:01:27;10.68;37.68
76291;DHT22;65100;46.884;17.410;2023-03-11T10:03:56;10.64;36.08
76291;DHT22;65100;46.884;17.410;2023-03-11T10:06:28;10.54;36.59
76291;DHT22;65100;46.884;17.410;2023-03-11T10:09:14;10.54;33.53
76291;DHT22;65100;46.884;17.410;2023-03-11T10:14:36;10.58;34.94
76291;DHT22;65100;46.884;17.410;2023-03-11T10:20:09;10.72;37.16
76291;DHT22;65100;46.884;17.410;2023-03-11T10:22:37;10.85;35.76
76291;DHT22;65100;46.884;17.410;2023-03-11T10:25:27;10.92;35.66
76291;DHT22;65100;46.884;17.410;2023-03-11T10:27:59;10.60;36.04
76291;DHT22;65100;46.884;17.410;2023-03-11T10:30:46;10.46;34.20
76291;DHT22;65100;46.884;17.410;2023-03-11T10:36:16;10.51;34.66
76291;DHT22;65100;46.884;17.410;2023-03-11T10:38:46;10.43;39.32
76291;DHT22;65100;46.884;17.410;2023-03-11T10:41:17;10.57;37.10
76291;DHT22;65100;46.884;17.410;2023-03-11T10:44:05;10.43;37.46
76291;DHT22;65100;46.884;17.410;2023-03-11T10:46:31;10.37;37.02
76291;DHT22;65100;46.884;17.410;2023-03-11T10:48:57;10.46;34.48
76291;DHT22;65100;46.884;17.410;2023-03-11T10:51:25;10.50;33.86
76291;DHT22;65100;46.884;17.410;2023-03-11T10:53:54;10.64;34.56
76291;DHT22;65100;46.884;17.410;2023-03-11T10:58:51;10.50;33.18
76291;DHT22;65100;46.884;17.410;2023-03-11T11:01:17;10.65;34.64
76291;DHT22;65100;46.884;17.410;2023-03-11T11:03:48;10.70;37.64
76291;DHT22;65100;46.884;17.410;2023-03-11T11:06:25;10.58;38.61
76291;DHT22;65100;46.884;17.410;2023-03-11T11:11:32;10.71;35.20
76291;DHT22;65100;46.884;17.410;2023-03-11T11:14:01;10.80;36.91
76291;DHT22;65100;46.884;17.410;2023-03-11T11:16:27;10.95;35.46
76291;DHT22;65100;46.884;17.410;2023-03-11T11:19:08;10.97;34.80
76291;DHT22;65100;46.884;17.410;2023-03-11T11:21:40;11.00;34.89
76291;DHT22;65100;46.884;17.410;2023-03-11T11:24:22;10.67;38.66
76291;DHT22;65100;46.884;17.410;2023-03-11T11:29:35;10.50;42.82
76291;DHT22;65100;46.884;17.410;2023-03-11T11:34:39;10.58;41.82
76291;DHT22;65100;46.884;17.410;2023-03-11T11:37:05;10.57;43.56
76291;DHT22;65100;46.884;17.410;2023-03-11T11:39:48;10.72;38.64
76291;DHT22;65100;46.884;17.410;2023-03-11T11:42:18;10.75;36.22
76291;DHT22;65100;46.884;17.410;2023-03-11T11:44:46;10.71;39.86
76291;DHT22;65100;46.884;17.410;2023-03-11T11:47:16;10.50;40.89
76291;DHT22;65100;46.884;17.410;2023-03-11T11:49:57;10.36;39.23
76291;DHT22;65100;46.884;17.410;2023-03-11T11:52:29;10.27;37.70
76291;DHT22;65100;46.884;17.410;2023-03-11T11:55:02;10.36;42.39
76291;DHT22;65100;46.884;17.410;2023-03-11T11:57:28;10.37;43.03
76291;DHT22;65100;46.884;17.410;2023-03-11T11:59:53;10.44;40.85
76291;DHT22;65100;46.884;17.410;2023-03-11T12:05:23;10.37;40.49
76291;DHT22;65100;46.884;17.410;2023-03-11T12:18:32;10.34;42.47
76291;DHT22;65100;46.884;17.410;2023-03-11T12:21:11;10.47;39.14
76291;DHT22;65100;46.884;17.410;2023-03-11T12:26:37;10.23;43.02
76291;DHT22;65100;46.884;17.410;2023-03-11T12:29:11;10.14;40.18
76291;DHT22;65100;46.884;17.410;2023-03-11T12:31:40;10.21;41.60
76291;DHT22;65100;46.884;17.410;2023-03-11T12:34:09;10.36;38.24
76291;DHT22;65100;46.884;17.410;2023-03-11T12:36:39;10.21;40.49
76291;DHT22;65100;46.884;17.410;2023-03-11T12:39:07;10.04;39.95
76291;DHT22;65100;46.884;17.410;2023-03-11T12:41:35;10.04;37.19
76291;DHT22;65100;46.884;17.410;2023-03-11T12:44:10;10.13;37.04
76291;DHT22;65100;46.884;17.410;2023-03-11T12:54:35;10.00;36.95
76291;DHT22;65100;46.884;17.410;2023-03-11T12:57:28;9.94;40.74
76291;DHT22;65100;46.884;17.410;2023-03-11T13:05:59;9.97;36.90
76291;DHT22;65100;46.884;17.410;2023-03-11T13:08:20;10.03;38.17
76291;DHT22;65100;46.884;17.410;2023-03-11T13:10:50;9.89;39.56
76291;DHT22;65100;46.884;17.410;2023-03-11T13:15:54;9.69;41.87
76291;DHT22;65100;46.884;17.410;2023-03-11T13:18:27;9.65;42.57
76291;DHT22;65100;46.884;17.410;2023-03-11T13:20:56;9.75;43.53
76291;DHT22;65100;46.884;17.410;2023-03-11T13:23:34;9.76;37.66
76291;DHT22;65100;46.884;17.410;2023-03-11T13:31:47;9.66;41.66
76291;DHT22;65100;46.884;17.410;2023-03-11T13:40:22;9.68;43.34
76291;DHT22;65100;46.884;17.410;2023-03-11T13:42:53;9.66;40.98
76291;DHT22;65100;46.884;17.410;2023-03-11T13:45:32;9.73;40.81
76291;DHT22;65100;46.884;17.410;2023-03-11T13:48:21;9.68;41.99
76291;DHT22;65100;46.884;17.410;2023-03-11T13:51:03;9.42;40.14
76291;DHT22;65100;46.884;17.410;2023-03-11T13:53:43;9.39;44.77
76291;DHT22;65100;46.884;17.410;2023-03-11T13:56:22;9.34;42.58
76291;DHT22;65100;46.884;17.410;2023-03-11T13:59:30;9.31;40.87
76291;DHT22;65100;46.884;17.410;2023-03-11T14:04:48;9.29;41.63
76291;DHT22;65100;46.884;17.410;2023-03-11T14:07:32;9.34;41.67
76291;DHT22;65100;46.884;17.410;2023-03-11T14:10:22;9.31;38.20
76291;DHT22;65100;46.884;17.410;2023-03-11T14:12:48;9.26;38.49
76291;DHT22;65100;46.884;17.410;2023-03-11T14:15:24;9.36;41.45
76291;DHT22;65100;46.884;17.410;2023-03-11T14:17:52;9.35;40.45
76291;DHT22;65100;46.884;17.410;2023-03-11T14:20:20;9.26;37.92
76291;DHT22;65100;46.884;17.410;2023-03-11T14:22:53;9.16;39.81
76291;DHT22;65100;46.884;17.410;2023-03-11T14:25:25;9.04;40.35
76291;DHT22;65100;46.884;17.410;2023-03-11T14:30:27;9.01;38.95
76291;DHT22;65100;46.884;17.410;2023-03-11T14:33:04;8.97;39.43
76291;DHT22;65100;46.884;17.410;2023-03-11T14:35:31;8.82;38.34
76291;DHT22;65100;46.884;17.410;2023-03-11T14:37:58;8.78;39.10
76291;DHT22;65100;46.884;17.410;2023-03-11T14:42:50;8.82;40.70
76291;DHT22;65100;46.884;17.410;2023-03-11T14:45:20;8.88;40.18
76291;DHT22;65100;46.884;17.410;2023-03-11T14:48:42;8.85;40.63
76291;DHT22;65100;46.884;17.410;2023-03-11T14:51:16;8.82;38.88
76291;DHT22;65100;46.884;17.410;2023-03-11T14:54:09;8.78;40.54
76291;DHT22;65100;46.884;17.410;2023-03-11T14:56:44;8.80;40.98
76291;DHT22;65100;46.884;17.410;2023-03-11T14:59:15;8.68;40.53
76291;DHT22;65100;46.884;17.410;2023-03-11T15:01:43;8.60;42.14
76291;DHT22;65100;46.884;17.410;2023-03-11T15:06:51;8.53;40.31
76291;DHT22;65100;46.884;17.410;2023-03-11T15:09:18;8.53;42.14
76291;DHT22;65100;46.884;17.410;2023-03-11T15:11:54;8.37;42.36
76291;DHT22;65100;46.884;17.410;2023-03-11T15:14:33;8.30;41.46
76291;DHT22;65100;46.884;17.410;2023-03-11T15:17:23;8.30;42.87
76291;DHT22;65100;46.884;17.410;2023-03-11T15:19:53;8.22;43.28
76291;DHT22;65100;46.884;17.410;2023-03-11T15:22:32;8.10;43.44
76291;DHT22;65100;46.884;17.410;2023-03-11T15:25:01;8.17;42.67
76291;DHT22;65100;46.884;17.410;2023-03-11T15:29:54;8.25;45.14
76291;DHT22;65100;46.884;17.410;2023-03-11T15:32:41;8.13;42.87
76291;DHT22;65100;46.884;17.410;2023-03-11T15:37:32;7.97;42.08
76291;DHT22;65100;46.884;17.410;2023-03-11T15:40:11;7.93;43.41
76291;DHT22;65100;46.884;17.410;2023-03-11T15:42:37;7.87;40.57
76291;DHT22;65100;46.884;17.410;2023-03-11T15:45:16;7.89;42.81
76291;DHT22;65100;46.884;17.410;2023-03-11T15:47:43;7.83;42.76
76291;DHT22;65100;46.884;17.410;2023-03-11T15:52:39;7.66;43.18
76291;DHT22;65100;46.884;17.410;2023-03-11T15:55:05;7.61;43.27
76291;DHT22;65100;46.884;17.410;2023-03-11T15:57:30;7.55;44.06
76291;DHT22;65100;46.884;17.410;2023-03-11T15:59:57;7.54;43.16
76291;DHT22;65100;46.884;17.410;2023-03-11T16:02:28;7.54;43.70
76291;DHT22;65100;46.884;17.410;2023-03-11T16:04:55;7.47;43.65
76291;DHT22;65100;46.884;17.410;2023-03-11T16:07:21;7.41;43.93
76291;DHT22;65100;46.884;17.410;2023-03-11T16:09:46;7.32;46.23
76291;DHT22;65100;46.884;17.410;2023-03-11T16:12:18;7.32;45.92
76291;DHT22;65100;46.884;17.410;2023-03-11T16:14:44;7.36;45.12
76291;DHT22;65100;46.884;17.410;2023-03-11T16:17:10;7.31;45.21
76291;DHT22;65100;46.884;17.410;2023-03-11T16:19:40;7.19;44.76
76291;DHT22;65100;46.884;17.410;2023-03-11T16:22:32;7.12;44.21
76291;DHT22;65100;46.884;17.410;2023-03-11T16:25:01;7.11;44.83
76291;DHT22;65100;46.884;17.410;2023-03-11T16:27:27;7.04;45.26
76291;DHT22;65100;46.884;17.410;2023-03-11T16:29:53;6.95;46.62
76291;DHT22;65100;46.884;17.410;2023-03-11T16:32:18;6.88;46.26
76291;DHT22;65100;46.884;17.410;2023-03-11T16:34:44;6.77;45.70
76291;DHT22;65100;46.884;17.410;2023-03-11T16:37:13;6.71;47.68
76291;DHT22;65100;46.884;17.410;2023-03-11T16:39:39;6.67;46.72
76291;DHT22;65100;46.884;17.410;2023-03-11T16:42:06;6.69;47.49
76291;DHT22;65100;46.884;17.410;2023-03-11T16:44:32;6.60;46.95
76291;DHT22;65100;46.884;17.410;2023-03-11T16:46:58;6.57;47.50
76291;DHT22;65100;46.884;17.410;2023-03-11T16:49:23;6.57;48.21
76291;DHT22;65100;46.884;17.410;2023-03-11T16:51:49;6.57;48.46
76291;DHT22;65100;46.884;17.410;2023-03-11T16:54:14;6.54;49.67
76291;DHT22;65100;46.884;17.410;2023-03-11T16:56:39;6.51;48.17
76291;DHT22;65100;46.884;17.410;2023-03-11T16:59:05;6.41;49.67
76291;DHT22;65100;46.884;17.410;2023-03-11T17:01:31;6.39;48.80
76291;DHT22;65100;46.884;17.410;2023-03-11T17:03:56;6.41;47.98
76291;DHT22;65100;46.884;17.410;2023-03-11T17:06:22;6.39;48.71